Time;durP1;ratioP1;P1;durP2;ratioP2;P2;SDS_P1;SDS_P2;PMS_P1;PMS_P2;Temp;Humidity;BMP_temperature;BMP_pressure;BME280_temperature;BME280_humidity;BME280_pressure;Samples;Min_cycle;Max_cycle;Signal;HPM_P1;HPM_P2
2020/12/13 00:01:36;;;;;;;6.83;4.73;;;3.70;99.90;;;;;;5090176;28;20686;-79
2020/12/13 00:04:01;;;;;;;9.73;6.23;;;3.70;99.90;;;;;;5091646;28;20665;-79
2020/12/13 00:06:30;;;;;;;8.20;5.20;;;3.60;99.90;;;;;;5089826;28;20216;-79
2020/12/13 00:08:56;;;;;;;5.77;5.17;;;3.70;99.90;;;;;;5090076;28;20216;-80
2020/12/13 00:11:21;;;;;;;11.50;6.30;;;3.70;99.90;;;;;;5089861;28;20345;-79
2020/12/13 00:13:47;;;;;;;10.57;6.33;;;3.70;99.90;;;;;;5090219;28;20722;-79
2020/12/13 00:16:14;;;;;;;8.23;5.77;;;3.70;99.90;;;;;;5090309;28;20196;-79
2020/12/13 00:18:42;;;;;;;9.63;6.27;;;3.70;99.90;;;;;;5088922;28;20189;-79
2020/12/13 00:21:11;;;;;;;9.47;5.73;;;3.70;99.90;;;;;;5087387;28;20205;-79
2020/12/13 00:23:37;;;;;;;8.23;5.50;;;3.60;99.90;;;;;;5087805;28;20215;-78
2020/12/13 00:26:06;;;;;;;8.40;5.83;;;3.60;99.90;;;;;;5087829;28;20188;-79
2020/12/13 00:28:32;;;;;;;8.53;5.83;;;3.70;99.90;;;;;;5088348;28;20176;-79
2020/12/13 00:30:58;;;;;;;6.70;5.13;;;3.60;99.90;;;;;;5086237;28;20215;-79
2020/12/13 00:33:23;;;;;;;8.53;5.80;;;3.60;99.90;;;;;;5086889;28;20188;-79
2020/12/13 00:35:49;;;;;;;8.50;5.77;;;3.60;99.90;;;;;;5086109;28;20224;-79
2020/12/13 00:38:14;;;;;;;11.33;6.17;;;3.60;99.90;;;;;;5087055;28;20192;-79
2020/12/13 00:40:41;;;;;;;11.93;6.63;;;3.60;99.90;;;;;;5087754;28;20212;-79
2020/12/13 00:43:06;;;;;;;8.10;6.27;;;3.60;99.90;;;;;;5088095;28;20219;-79
2020/12/13 00:45:32;;;;;;;7.53;6.20;;;3.60;99.90;;;;;;5086353;28;20242;-79
2020/12/13 00:47:57;;;;;;;9.13;6.43;;;3.60;99.90;;;;;;5086293;28;20196;-79
2020/12/13 00:50:23;;;;;;;7.70;5.27;;;3.60;99.90;;;;;;5086377;28;20212;-79
2020/12/13 00:52:49;;;;;;;6.87;5.73;;;3.60;99.90;;;;;;5085969;28;20196;-80
2020/12/13 00:55:14;;;;;;;8.97;5.70;;;3.60;99.90;;;;;;5087157;28;20184;-79
2020/12/13 00:57:40;;;;;;;8.77;5.70;;;3.60;99.90;;;;;;5087700;28;20203;-79
2020/12/13 01:00:05;;;;;;;8.97;5.83;;;3.60;99.90;;;;;;5087661;28;20209;-79
2020/12/13 01:02:31;;;;;;;7.90;5.40;;;3.60;99.90;;;;;;5086070;28;20655;-79
2020/12/13 01:04:56;;;;;;;11.30;6.50;;;3.60;99.90;;;;;;5087442;28;20674;-79
2020/12/13 01:07:22;;;;;;;9.13;5.67;;;3.60;99.90;;;;;;5087354;28;20635;-79
2020/12/13 01:09:47;;;;;;;7.43;5.20;;;3.60;99.90;;;;;;5086152;28;20263;-80
2020/12/13 01:12:13;;;;;;;8.33;4.93;;;3.60;99.90;;;;;;5085687;28;20281;-78
2020/12/13 01:14:39;;;;;;;9.87;6.03;;;3.60;99.90;;;;;;5085848;28;20247;-79
2020/12/13 01:17:07;;;;;;;6.97;4.23;;;3.60;99.90;;;;;;5087136;28;20592;-79
2020/12/13 01:19:33;;;;;;;9.73;6.37;;;3.60;99.90;;;;;;5085224;28;20213;-79
2020/12/13 01:21:58;;;;;;;7.77;5.47;;;3.60;99.90;;;;;;5087491;28;20199;-79
2020/12/13 01:24:24;;;;;;;7.30;5.67;;;3.60;99.90;;;;;;5085567;28;20235;-78
2020/12/13 01:26:49;;;;;;;8.87;6.23;;;3.60;99.90;;;;;;5087005;28;20223;-79
2020/12/13 01:29:15;;;;;;;8.73;5.50;;;3.60;99.90;;;;;;5085600;28;20238;-79
2020/12/13 01:31:41;;;;;;;8.97;5.77;;;3.60;99.90;;;;;;5084866;28;20677;-79
2020/12/13 01:34:07;;;;;;;10.07;6.23;;;3.60;99.90;;;;;;5087142;28;20181;-79
2020/12/13 01:36:34;;;;;;;8.63;5.83;;;3.60;99.90;;;;;;5086311;28;20673;-78
2020/12/13 01:38:59;;;;;;;11.37;7.07;;;3.60;99.90;;;;;;5085603;28;20223;-79
2020/12/13 01:41:25;;;;;;;9.70;5.47;;;3.70;99.90;;;;;;5084863;28;20212;-79
2020/12/13 01:43:59;;;;;;;7.97;4.87;;;3.60;99.90;;;;;;5084809;28;20667;-79
2020/12/13 01:46:26;;;;;;;6.17;5.57;;;3.60;99.90;;;;;;5086335;28;20176;-79
2020/12/13 01:49:01;;;;;;;16.27;7.70;;;3.60;99.90;;;;;;5086568;28;20554;-79
2020/12/13 01:51:50;;;;;;;13.10;6.73;;;3.70;99.90;;;;;;5101621;28;20674;-79
2020/12/13 01:54:16;;;;;;;8.93;6.70;;;3.60;99.90;;;;;;5084721;28;20188;-79
2020/12/13 01:56:48;;;;;;;12.37;7.77;;;3.60;99.90;;;;;;5086347;28;20208;-79
2020/12/13 01:59:16;;;;;;;8.70;7.13;;;3.60;99.90;;;;;;5084610;28;20211;-79
2020/12/13 02:01:46;;;;;;;6.87;5.30;;;3.70;99.90;;;;;;5084385;28;20217;-79
2020/12/13 02:04:18;;;;;;;8.87;6.63;;;3.70;99.90;;;;;;5086704;28;20249;-80
2020/12/13 02:06:53;;;;;;;8.30;5.30;;;3.60;99.90;;;;;;5084462;28;20850;-79
2020/12/13 02:09:23;;;;;;;13.53;8.43;;;3.70;99.90;;;;;;5084509;28;20192;-80
2020/12/13 02:11:49;;;;;;;15.20;10.10;;;3.60;99.90;;;;;;5084458;28;20184;-79
2020/12/13 02:14:15;;;;;;;12.40;7.93;;;3.70;99.90;;;;;;5085474;28;20188;-80
2020/12/13 02:16:53;;;;;;;11.67;6.70;;;3.70;99.90;;;;;;5084187;28;20196;-80
2020/12/13 02:19:19;;;;;;;20.73;12.17;;;3.60;99.90;;;;;;5084314;28;20630;-79
2020/12/13 02:21:49;;;;;;;12.37;8.90;;;3.60;99.90;;;;;;5085453;28;20595;-79
2020/12/13 02:24:15;;;;;;;10.63;6.80;;;3.60;99.90;;;;;;5083977;28;20248;-79
2020/12/13 02:26:43;;;;;;;6.87;5.47;;;3.60;99.90;;;;;;5084371;28;20261;-79
2020/12/13 02:29:08;;;;;;;12.50;7.37;;;3.60;99.90;;;;;;5084574;28;20219;-79
2020/12/13 02:31:34;;;;;;;7.60;5.13;;;3.60;99.90;;;;;;5084252;28;20654;-79
2020/12/13 02:34:02;;;;;;;7.90;5.77;;;3.60;99.90;;;;;;5085787;28;20230;-79
2020/12/13 02:36:28;;;;;;;8.10;6.27;;;3.60;99.90;;;;;;5085541;28;20180;-79
2020/12/13 02:38:54;;;;;;;10.00;6.67;;;3.60;99.90;;;;;;5085374;28;20220;-79
2020/12/13 02:41:20;;;;;;;8.23;5.47;;;3.60;99.90;;;;;;5084757;28;20627;-79
2020/12/13 02:43:45;;;;;;;10.57;6.13;;;3.60;99.90;;;;;;5084620;28;20201;-79
2020/12/13 02:46:11;;;;;;;6.33;5.13;;;3.60;99.90;;;;;;5084617;28;20211;-79
2020/12/13 02:48:37;;;;;;;9.27;5.80;;;3.70;99.90;;;;;;5084477;28;20211;-79
2020/12/13 02:51:02;;;;;;;7.60;4.77;;;3.70;99.90;;;;;;5085566;28;20823;-79
2020/12/13 02:53:28;;;;;;;7.33;6.10;;;3.70;99.90;;;;;;5085087;28;20267;-79
2020/12/13 02:55:54;;;;;;;8.23;5.63;;;3.70;99.90;;;;;;5085502;28;20233;-79
2020/12/13 02:58:19;;;;;;;8.40;5.83;;;3.70;99.90;;;;;;5084949;28;20260;-78
2020/12/13 03:00:45;;;;;;;8.27;5.43;;;3.60;99.90;;;;;;5085411;28;20204;-78
2020/12/13 03:03:10;;;;;;;8.30;4.53;;;3.60;99.90;;;;;;5083889;28;20257;-78
2020/12/13 03:05:36;;;;;;;6.57;5.47;;;3.60;99.90;;;;;;5083993;28;20650;-79
2020/12/13 03:08:02;;;;;;;8.37;5.13;;;3.60;99.90;;;;;;5083800;28;20192;-79
2020/12/13 03:10:27;;;;;;;13.20;7.47;;;3.60;99.90;;;;;;5084088;28;20208;-79
2020/12/13 03:12:53;;;;;;;8.60;5.20;;;3.60;99.90;;;;;;5085369;28;20287;-78
2020/12/13 03:15:18;;;;;;;8.37;6.97;;;3.60;99.90;;;;;;5083726;28;20192;-79
2020/12/13 03:17:44;;;;;;;9.77;5.90;;;3.60;99.90;;;;;;5083694;28;20184;-79
2020/12/13 03:20:10;;;;;;;11.30;6.47;;;3.60;99.90;;;;;;5082747;28;20208;-78
2020/12/13 03:22:36;;;;;;;9.23;5.27;;;3.60;99.90;;;;;;5084189;28;20208;-78
2020/12/13 03:25:02;;;;;;;8.70;6.57;;;3.60;99.90;;;;;;5084984;28;20204;-78
2020/12/13 03:27:28;;;;;;;9.93;7.20;;;3.60;99.90;;;;;;5085000;28;20246;-79
2020/12/13 03:29:54;;;;;;;9.90;6.50;;;3.60;99.90;;;;;;5083968;28;20797;-80
2020/12/13 03:32:20;;;;;;;12.90;7.87;;;3.60;99.90;;;;;;5085106;28;20631;-79
2020/12/13 03:34:45;;;;;;;7.87;5.27;;;3.60;99.90;;;;;;5083908;28;20658;-79
2020/12/13 03:37:12;;;;;;;9.10;6.43;;;3.70;99.90;;;;;;5084914;28;20211;-78
2020/12/13 03:39:37;;;;;;;11.03;6.70;;;3.70;99.90;;;;;;5084671;28;20212;-79
2020/12/13 03:42:03;;;;;;;11.47;7.20;;;3.60;99.90;;;;;;5084535;28;20189;-78
2020/12/13 03:44:28;;;;;;;7.90;6.20;;;3.60;99.90;;;;;;5084928;28;20232;-79
2020/12/13 03:46:54;;;;;;;8.80;5.90;;;3.60;99.90;;;;;;5084946;28;20596;-78
2020/12/13 03:49:19;;;;;;;8.57;5.73;;;3.60;99.90;;;;;;5083579;28;20181;-78
2020/12/13 03:51:45;;;;;;;9.70;5.60;;;3.60;99.90;;;;;;5084860;28;20252;-80
2020/12/13 03:54:10;;;;;;;15.13;8.37;;;3.70;99.90;;;;;;5087555;28;20529;-79
2020/12/13 03:56:36;;;;;;;11.97;8.13;;;3.60;99.90;;;;;;5086704;28;20664;-78
2020/12/13 03:59:01;;;;;;;18.40;11.50;;;3.70;99.90;;;;;;5089074;28;20192;-78
2020/12/13 04:01:27;;;;;;;16.07;8.87;;;3.70;99.90;;;;;;5088661;28;20209;-79
2020/12/13 04:03:53;;;;;;;11.10;7.60;;;3.60;99.90;;;;;;5088541;28;20243;-79
2020/12/13 04:06:18;;;;;;;9.60;6.40;;;3.60;99.90;;;;;;5086926;28;20609;-79
2020/12/13 04:08:44;;;;;;;11.80;5.70;;;3.60;99.90;;;;;;5088573;28;20184;-79
2020/12/13 04:11:11;;;;;;;8.70;5.67;;;3.50;99.90;;;;;;5087171;28;20244;-79
2020/12/13 04:13:36;;;;;;;11.53;7.10;;;3.50;99.90;;;;;;5087171;28;20216;-80
2020/12/13 04:16:02;;;;;;;10.57;7.23;;;3.50;99.90;;;;;;5086985;28;20604;-79
2020/12/13 04:18:27;;;;;;;9.07;6.80;;;3.50;99.90;;;;;;5086760;28;20193;-79
2020/12/13 04:20:53;;;;;;;11.87;7.47;;;3.50;99.90;;;;;;5086315;28;20216;-79
2020/12/13 04:23:18;;;;;;;10.20;7.10;;;3.60;99.90;;;;;;5088250;28;20211;-80
2020/12/13 04:25:44;;;;;;;9.23;6.70;;;3.60;99.90;;;;;;5086551;28;20249;-79
2020/12/13 04:28:09;;;;;;;11.23;7.10;;;3.60;99.90;;;;;;5087884;28;20670;-78
2020/12/13 04:30:35;;;;;;;9.33;5.77;;;3.60;99.90;;;;;;5087711;28;20717;-78
2020/12/13 04:33:01;;;;;;;11.87;8.37;;;3.60;99.90;;;;;;5087836;28;20188;-79
2020/12/13 04:35:26;;;;;;;9.97;5.97;;;3.60;99.90;;;;;;5087617;28;20189;-79
2020/12/13 04:37:52;;;;;;;12.83;7.37;;;3.60;99.90;;;;;;5086423;28;20237;-78
2020/12/13 04:40:17;;;;;;;13.83;8.10;;;3.60;99.90;;;;;;5087833;28;20275;-78
2020/12/13 04:42:43;;;;;;;8.97;6.53;;;3.60;99.90;;;;;;5091118;28;20803;-80
2020/12/13 04:45:10;;;;;;;11.27;7.63;;;3.60;99.90;;;;;;5086135;28;20212;-79
2020/12/13 04:48:02;;;;;;;10.17;6.77;;;3.60;99.90;;;;;;5086360;28;20181;-79
2020/12/13 04:50:31;;;;;;;9.20;6.97;;;3.50;99.90;;;;;;5087592;28;21168;-78
2020/12/13 04:52:58;;;;;;;10.67;6.27;;;3.50;99.90;;;;;;5085762;28;20182;-78
2020/12/13 04:55:23;;;;;;;13.87;8.07;;;3.50;99.90;;;;;;5085882;28;20240;-79
2020/12/13 04:57:49;;;;;;;9.80;6.90;;;3.50;99.90;;;;;;5085778;28;20204;-79
2020/12/13 05:00:17;;;;;;;10.47;7.17;;;3.50;99.90;;;;;;5086310;28;20208;-79
2020/12/13 05:02:43;;;;;;;8.83;6.80;;;3.60;99.90;;;;;;5087470;28;20743;-79
2020/12/13 05:05:11;;;;;;;10.03;7.00;;;3.60;99.90;;;;;;5084966;28;20212;-77
2020/12/13 05:07:37;;;;;;;11.90;6.73;;;3.50;99.90;;;;;;5087527;28;20184;-78
2020/12/13 05:10:03;;;;;;;9.93;6.57;;;3.60;99.90;;;;;;5085904;28;20200;-80
2020/12/13 05:12:29;;;;;;;13.43;9.03;;;3.50;99.90;;;;;;5085172;28;20279;-80
2020/12/13 05:14:54;;;;;;;11.07;7.83;;;3.50;99.90;;;;;;5085981;28;21023;-79
2020/12/13 05:17:20;;;;;;;11.50;7.50;;;3.60;99.90;;;;;;5085714;28;20200;-78
2020/12/13 05:19:49;;;;;;;12.50;6.90;;;3.60;99.90;;;;;;5085763;28;20209;-79
2020/12/13 05:22:19;;;;;;;10.27;7.00;;;3.60;99.90;;;;;;5086980;28;20276;-79
2020/12/13 05:24:45;;;;;;;11.10;7.57;;;3.60;99.90;;;;;;5086576;28;20201;-79
2020/12/13 05:27:10;;;;;;;11.87;7.97;;;3.60;99.90;;;;;;5085274;28;20242;-78
2020/12/13 05:29:38;;;;;;;8.17;6.50;;;3.70;99.90;;;;;;5085953;28;20205;-79
2020/12/13 05:32:12;;;;;;;9.23;6.37;;;3.70;99.90;;;;;;5085210;28;20189;-79
2020/12/13 05:34:40;;;;;;;10.57;6.43;;;3.60;99.90;;;;;;5085498;28;20192;-79
2020/12/13 05:37:07;;;;;;;11.63;7.40;;;3.60;99.90;;;;;;5084646;28;20193;-79
2020/12/13 05:39:36;;;;;;;11.03;8.30;;;3.60;99.90;;;;;;5084382;28;20319;-79
2020/12/13 05:42:02;;;;;;;11.83;8.13;;;3.60;99.90;;;;;;5084774;28;20199;-79
2020/12/13 05:45:03;;;;;;;10.50;7.40;;;3.60;99.90;;;;;;5085222;28;20208;-80
2020/12/13 05:52:52;;;;;;;11.23;7.23;;;3.60;99.90;;;;;;5096249;28;20191;-79
2020/12/13 05:55:19;;;;;;;13.53;7.53;;;3.60;99.90;;;;;;5086111;28;20253;-79
2020/12/13 05:57:48;;;;;;;9.50;6.37;;;3.60;99.90;;;;;;5097113;28;20224;-79
2020/12/13 06:00:16;;;;;;;8.33;5.97;;;3.70;99.90;;;;;;5096574;28;20231;-79
2020/12/13 06:02:45;;;;;;;7.27;5.50;;;3.60;99.90;;;;;;5091371;28;20181;-79
2020/12/13 06:05:16;;;;;;;10.60;6.93;;;3.60;99.90;;;;;;5090831;28;20213;-81
2020/12/13 06:07:49;;;;;;;10.50;7.10;;;3.60;99.90;;;;;;5090865;28;20177;-80
2020/12/13 06:10:25;;;;;;;10.77;6.63;;;3.60;99.90;;;;;;5090844;28;20201;-81
2020/12/13 06:13:06;;;;;;;10.57;7.10;;;3.60;99.90;;;;;;5088943;28;20195;-81
2020/12/13 06:15:33;;;;;;;10.60;6.13;;;3.60;99.90;;;;;;5090283;28;20283;-81
2020/12/13 06:17:59;;;;;;;9.50;6.13;;;3.60;99.90;;;;;;5089145;28;20188;-81
2020/12/13 06:20:26;;;;;;;10.27;6.40;;;3.60;99.90;;;;;;5088367;28;20197;-81
2020/12/13 06:22:54;;;;;;;11.00;7.33;;;3.60;99.90;;;;;;5087863;28;20195;-80
2020/12/13 06:25:21;;;;;;;11.03;7.20;;;3.60;99.90;;;;;;5089460;28;20954;-79
2020/12/13 06:27:51;;;;;;;11.10;6.97;;;3.60;99.90;;;;;;5087867;28;20188;-81
2020/12/13 06:30:18;;;;;;;13.83;8.07;;;3.70;99.90;;;;;;5089433;28;20208;-80
2020/12/13 06:32:46;;;;;;;11.57;7.20;;;3.70;99.90;;;;;;5088194;28;20288;-80
2020/12/13 06:35:13;;;;;;;13.33;6.17;;;3.60;99.90;;;;;;5089181;28;20176;-79
2020/12/13 06:37:38;;;;;;;14.03;8.63;;;3.70;99.90;;;;;;5087669;28;20207;-80
2020/12/13 06:40:09;;;;;;;15.43;9.93;;;3.60;99.90;;;;;;5087802;28;20212;-79
2020/12/13 06:42:41;;;;;;;9.63;7.10;;;3.60;99.90;;;;;;5088286;28;20188;-81
2020/12/13 06:45:12;;;;;;;10.57;6.77;;;3.70;99.90;;;;;;5088354;28;20322;-80
2020/12/13 06:47:42;;;;;;;11.30;7.17;;;3.70;99.90;;;;;;5089308;28;20184;-79
2020/12/13 06:50:24;;;;;;;12.10;8.40;;;3.70;99.90;;;;;;5088960;28;20350;-80
2020/12/13 06:52:51;;;;;;;12.57;7.43;;;3.70;99.90;;;;;;5088202;28;20185;-81
2020/12/13 06:55:17;;;;;;;11.33;6.10;;;3.70;99.90;;;;;;5087359;28;20192;-80
2020/12/13 06:57:46;;;;;;;10.23;6.93;;;3.60;99.90;;;;;;5088579;28;20200;-80
2020/12/13 07:00:12;;;;;;;12.97;7.53;;;3.60;99.90;;;;;;5086938;28;20212;-82
2020/12/13 07:02:44;;;;;;;16.17;8.43;;;3.70;99.90;;;;;;5086716;28;20188;-79
2020/12/13 07:05:10;;;;;;;10.37;7.57;;;3.70;99.90;;;;;;5086711;28;20212;-82
2020/12/13 07:07:38;;;;;;;8.50;6.10;;;3.60;99.90;;;;;;5088105;28;20203;-80
2020/12/13 07:10:09;;;;;;;10.00;6.63;;;3.60;99.90;;;;;;5086931;28;20287;-81
2020/12/13 07:12:36;;;;;;;11.83;6.43;;;3.70;99.90;;;;;;5086955;28;20644;-80
2020/12/13 07:15:19;;;;;;;14.93;8.33;;;3.70;99.90;;;;;;5085471;28;20188;-80
2020/12/13 07:17:45;;;;;;;9.37;6.90;;;3.60;99.90;;;;;;5087218;28;20185;-81
2020/12/13 07:20:11;;;;;;;10.13;6.90;;;3.70;99.90;;;;;;5085048;28;20213;-74
2020/12/13 07:22:36;;;;;;;8.93;6.70;;;3.60;99.90;;;;;;5084077;28;20678;-79
2020/12/13 07:25:02;;;;;;;13.30;7.77;;;3.60;99.90;;;;;;5088153;28;20204;-80
2020/12/13 07:27:28;;;;;;;10.53;6.47;;;3.60;99.90;;;;;;5086654;28;20258;-79
2020/12/13 07:29:56;;;;;;;11.17;7.63;;;3.60;99.90;;;;;;5091366;28;20600;-80
2020/12/13 07:32:23;;;;;;;15.40;7.50;;;3.70;99.90;;;;;;5090539;28;20189;-79
2020/12/13 07:34:49;;;;;;;11.43;6.50;;;3.60;99.90;;;;;;5091461;28;21227;-79
2020/12/13 07:37:16;;;;;;;12.87;6.93;;;3.60;99.90;;;;;;5090727;28;20188;-81
2020/12/13 07:39:42;;;;;;;11.10;6.73;;;3.60;99.90;;;;;;5091930;28;20279;-79
2020/12/13 07:42:09;;;;;;;11.67;7.40;;;3.70;99.90;;;;;;5091399;28;20189;-79
2020/12/13 07:44:35;;;;;;;11.13;7.53;;;3.60;99.90;;;;;;5092215;28;20228;-77
2020/12/13 07:47:01;;;;;;;13.30;7.77;;;3.60;99.90;;;;;;5091032;28;20647;-79
2020/12/13 07:49:26;;;;;;;13.70;8.50;;;3.60;99.90;;;;;;5090866;28;20628;-80
2020/12/13 07:51:57;;;;;;;10.67;7.13;;;3.60;99.90;;;;;;5089860;28;20189;-79
2020/12/13 07:54:22;;;;;;;9.53;7.30;;;3.60;99.90;;;;;;5091208;28;20188;-79
2020/12/13 07:56:53;;;;;;;12.90;7.03;;;3.60;99.90;;;;;;5091223;28;20200;-79
2020/12/13 07:59:24;;;;;;;9.93;7.43;;;3.60;99.90;;;;;;5088682;28;20327;-79
2020/12/13 08:01:54;;;;;;;16.07;9.60;;;3.70;99.90;;;;;;5090107;28;20862;-80
2020/12/13 08:04:31;;;;;;;17.67;13.77;;;3.80;99.90;;;;;;5090231;28;20220;-80
2020/12/13 08:07:01;;;;;;;10.87;7.10;;;3.70;99.90;;;;;;5091030;28;20585;-80
2020/12/13 08:09:27;;;;;;;15.10;9.53;;;3.70;99.90;;;;;;5091395;28;20224;-76
2020/12/13 08:11:53;;;;;;;12.80;8.60;;;3.70;99.90;;;;;;5089361;28;20551;-78
2020/12/13 08:14:24;;;;;;;14.67;9.00;;;3.70;99.90;;;;;;5091032;28;20189;-79
2020/12/13 08:16:54;;;;;;;10.43;7.23;;;3.70;99.90;;;;;;5088697;28;20189;-78
2020/12/13 08:19:33;;;;;;;13.73;7.67;;;3.70;99.90;;;;;;5089779;28;20192;-79
2020/12/13 08:22:22;;;;;;;10.80;7.30;;;3.70;99.90;;;;;;5089440;28;20208;-81
2020/12/13 08:24:56;;;;;;;11.90;8.67;;;3.70;99.90;;;;;;5088851;28;20219;-80
2020/12/13 08:27:22;;;;;;;8.80;7.07;;;3.80;99.90;;;;;;5090353;28;20177;-79
2020/12/13 08:29:48;;;;;;;14.70;8.03;;;3.80;99.90;;;;;;5088618;28;20208;-81
2020/12/13 08:32:15;;;;;;;14.23;8.63;;;3.80;99.90;;;;;;5089924;28;20176;-79
2020/12/13 08:34:41;;;;;;;12.50;8.23;;;3.80;99.90;;;;;;5090014;28;20188;-79
2020/12/13 08:37:06;;;;;;;13.70;7.43;;;3.80;99.90;;;;;;5089921;28;20189;-78
2020/12/13 08:39:34;;;;;;;12.47;8.47;;;3.90;99.90;;;;;;5088094;28;20208;-81
2020/12/13 08:42:04;;;;;;;9.97;7.57;;;3.80;99.90;;;;;;5088343;28;20181;-80
2020/12/13 08:44:37;;;;;;;8.50;6.77;;;3.80;99.90;;;;;;5088820;28;20196;-79
2020/12/13 08:47:06;;;;;;;12.17;8.37;;;3.80;99.90;;;;;;5088623;28;20271;-79
2020/12/13 08:49:37;;;;;;;11.00;7.43;;;3.90;99.90;;;;;;5086545;28;20213;-79
2020/12/13 08:52:26;;;;;;;10.73;6.97;;;3.80;99.90;;;;;;5088994;28;20177;-80
2020/12/13 08:54:55;;;;;;;10.30;7.20;;;3.80;99.90;;;;;;5087247;28;21194;-80
2020/12/13 08:57:31;;;;;;;15.47;9.37;;;3.80;99.90;;;;;;5089069;28;20200;-80
2020/12/13 09:00:01;;;;;;;11.30;7.20;;;3.90;99.90;;;;;;5088710;28;20226;-80
2020/12/13 09:02:27;;;;;;;13.43;7.20;;;3.90;99.90;;;;;;5088814;28;20189;-79
2020/12/13 09:04:57;;;;;;;9.23;6.60;;;3.90;99.90;;;;;;5089709;28;20208;-79
2020/12/13 09:07:23;;;;;;;11.30;7.03;;;3.90;99.90;;;;;;5089076;28;20177;-81
2020/12/13 09:09:49;;;;;;;12.80;6.97;;;3.90;99.90;;;;;;5089635;28;20433;-78
2020/12/13 09:12:19;;;;;;;11.77;8.83;;;3.90;99.90;;;;;;5090011;28;20188;-80
2020/12/13 09:14:46;;;;;;;11.50;6.80;;;3.90;99.90;;;;;;5089628;28;20639;-81
2020/12/13 09:17:11;;;;;;;9.77;7.33;;;3.90;99.90;;;;;;5088772;28;20189;-81
2020/12/13 09:19:51;;;;;;;17.10;10.27;;;3.90;99.90;;;;;;5090353;28;20197;-79
2020/12/13 09:22:21;;;;;;;9.83;8.10;;;3.90;99.90;;;;;;5089609;28;20192;-79
2020/12/13 09:24:48;;;;;;;12.03;8.13;;;4.00;99.90;;;;;;5085909;28;20212;-78
2020/12/13 09:27:23;;;;;;;11.80;8.37;;;3.90;99.90;;;;;;5088219;28;20219;-82
2020/12/13 09:29:50;;;;;;;13.20;8.80;;;4.00;99.90;;;;;;5085019;28;20779;-80
2020/12/13 09:32:17;;;;;;;9.47;7.57;;;4.00;99.90;;;;;;5085077;28;20187;-82
2020/12/13 09:34:43;;;;;;;8.57;5.43;;;4.00;99.90;;;;;;5085815;28;20218;-80
2020/12/13 09:37:10;;;;;;;12.67;7.23;;;3.90;99.90;;;;;;5087505;28;20185;-80
2020/12/13 09:39:36;;;;;;;11.23;7.63;;;4.00;99.90;;;;;;5087137;28;20204;-81
2020/12/13 09:42:02;;;;;;;11.07;7.00;;;4.00;99.90;;;;;;5087301;28;20268;-80
2020/12/13 09:44:28;;;;;;;8.73;6.60;;;4.00;99.90;;;;;;5085131;28;20238;-80
2020/12/13 09:46:54;;;;;;;8.43;6.67;;;4.10;99.90;;;;;;5085899;28;20702;-81
2020/12/13 09:49:20;;;;;;;11.63;7.63;;;4.10;99.90;;;;;;5087350;28;20860;-79
2020/12/13 09:51:46;;;;;;;10.20;7.10;;;4.10;99.90;;;;;;5086477;28;20211;-80
2020/12/13 09:54:12;;;;;;;11.63;7.33;;;4.10;99.90;;;;;;5086013;28;20208;-80
2020/12/13 09:56:37;;;;;;;8.33;6.93;;;4.10;99.90;;;;;;5085286;28;20233;-81
2020/12/13 09:59:03;;;;;;;11.37;7.57;;;4.10;99.90;;;;;;5085852;28;20238;-80
2020/12/13 10:01:29;;;;;;;10.93;7.23;;;4.20;99.90;;;;;;5085482;28;20209;-80
2020/12/13 10:03:55;;;;;;;8.97;7.20;;;4.20;99.90;;;;;;5086395;28;20236;-80
2020/12/13 10:09:08;;;;;;;10.47;6.60;;;4.10;99.90;;;;;;5086822;28;20237;-79
2020/12/13 10:11:37;;;;;;;10.73;6.53;;;4.10;99.90;;;;;;5085375;28;20196;-77
2020/12/13 10:14:03;;;;;;;9.83;7.23;;;4.10;99.90;;;;;;5086992;28;20181;-80
2020/12/13 10:16:29;;;;;;;9.47;7.13;;;4.20;99.90;;;;;;5086358;28;20196;-81
2020/12/13 10:18:55;;;;;;;12.50;6.47;;;4.20;99.90;;;;;;5085811;28;20184;-81
2020/12/13 10:21:24;;;;;;;10.57;6.23;;;4.20;99.90;;;;;;5086542;28;20216;-78
2020/12/13 10:23:50;;;;;;;10.57;6.97;;;4.20;99.90;;;;;;5089118;28;20197;-81
2020/12/13 10:26:16;;;;;;;10.53;6.90;;;4.20;99.90;;;;;;5087569;28;20613;-78
2020/12/13 10:28:42;;;;;;;11.90;7.53;;;4.30;99.90;;;;;;5087509;28;20299;-81
2020/12/13 10:31:10;;;;;;;9.03;5.60;;;4.30;99.90;;;;;;5090007;28;20243;-79
2020/12/13 10:33:40;;;;;;;11.10;7.13;;;4.30;99.90;;;;;;5090510;28;20556;-82
2020/12/13 10:36:12;;;;;;;9.63;5.50;;;4.30;99.90;;;;;;5086718;28;20225;-77
2020/12/13 10:38:39;;;;;;;9.27;6.13;;;4.40;99.90;;;;;;5082975;28;20188;-81
2020/12/13 10:41:08;;;;;;;10.00;6.57;;;4.40;99.90;;;;;;5082809;28;20208;-75
2020/12/13 10:43:35;;;;;;;9.17;5.90;;;4.40;99.90;;;;;;5082609;28;20261;-75
2020/12/13 10:46:05;;;;;;;8.60;6.13;;;4.40;99.90;;;;;;5081759;28;20266;-75
2020/12/13 10:48:32;;;;;;;9.10;6.17;;;4.40;99.90;;;;;;5082521;28;20181;-75
2020/12/13 10:50:57;;;;;;;12.83;7.27;;;4.30;99.90;;;;;;5081552;28;20705;-75
2020/12/13 10:53:24;;;;;;;9.63;6.90;;;4.40;99.90;;;;;;5080313;28;20180;-80
2020/12/13 10:55:50;;;;;;;11.20;7.03;;;4.40;99.90;;;;;;5086461;28;20180;-78
2020/12/13 10:58:15;;;;;;;8.13;5.87;;;4.40;99.90;;;;;;5086831;28;20188;-78
2020/12/13 11:00:41;;;;;;;9.20;6.37;;;4.40;99.90;;;;;;5084616;28;20579;-77
2020/12/13 11:03:06;;;;;;;11.33;6.90;;;4.40;99.90;;;;;;5082688;28;20737;-82
2020/12/13 11:05:32;;;;;;;9.13;6.77;;;4.50;99.90;;;;;;5085786;28;20253;-78
2020/12/13 11:07:57;;;;;;;11.40;7.23;;;4.40;99.90;;;;;;5084796;28;20270;-77
2020/12/13 11:10:23;;;;;;;10.77;5.90;;;4.40;99.90;;;;;;5085074;28;20212;-77
2020/12/13 11:12:49;;;;;;;9.97;7.03;;;4.40;99.90;;;;;;5085797;28;20184;-80
2020/12/13 11:15:14;;;;;;;10.93;6.93;;;4.40;99.90;;;;;;5085175;28;20219;-80
2020/12/13 11:17:40;;;;;;;9.03;6.43;;;4.50;99.90;;;;;;5086585;28;20257;-79
2020/12/13 11:20:05;;;;;;;8.67;6.53;;;4.50;99.90;;;;;;5087224;28;20569;-78
2020/12/13 11:22:31;;;;;;;9.93;6.67;;;4.50;99.90;;;;;;5087249;28;20529;-79
2020/12/13 11:24:57;;;;;;;13.13;7.47;;;4.50;99.90;;;;;;5083864;28;20294;-78
2020/12/13 11:27:22;;;;;;;16.00;8.67;;;4.50;99.90;;;;;;5084017;28;20564;-79
2020/12/13 11:29:48;;;;;;;11.37;7.60;;;4.60;99.90;;;;;;5083650;28;20211;-77
2020/12/13 11:32:13;;;;;;;11.27;7.47;;;4.70;99.90;;;;;;5084223;28;20275;-77
2020/12/13 11:34:39;;;;;;;10.13;7.40;;;4.80;99.90;;;;;;5085361;28;20212;-78
2020/12/13 11:37:06;;;;;;;9.87;6.80;;;4.80;99.90;;;;;;5083696;28;20184;-76
2020/12/13 11:39:32;;;;;;;11.93;7.47;;;4.80;99.90;;;;;;5084454;28;20709;-78
2020/12/13 11:41:59;;;;;;;10.13;6.47;;;4.80;99.90;;;;;;5083712;28;20682;-78
2020/12/13 11:44:25;;;;;;;15.13;7.53;;;4.80;99.90;;;;;;5083811;28;20204;-78
2020/12/13 11:46:51;;;;;;;11.60;6.37;;;4.80;99.90;;;;;;5083714;28;20551;-77
2020/12/13 11:49:16;;;;;;;8.57;6.70;;;4.80;99.90;;;;;;5084952;28;20183;-77
2020/12/13 11:51:43;;;;;;;9.50;6.30;;;4.80;99.90;;;;;;5085297;28;20226;-76
2020/12/13 11:54:09;;;;;;;8.87;6.23;;;4.80;99.90;;;;;;5085510;28;20192;-78
2020/12/13 11:56:35;;;;;;;8.50;6.47;;;4.80;99.90;;;;;;5084915;28;20655;-78
2020/12/13 11:59:01;;;;;;;9.77;7.07;;;4.90;99.90;;;;;;5084794;28;20259;-78
2020/12/13 12:01:28;;;;;;;12.30;6.87;;;4.90;99.90;;;;;;5084556;28;20270;-78
2020/12/13 12:03:54;;;;;;;14.13;8.47;;;5.00;99.90;;;;;;5084045;28;20321;-78
2020/12/13 12:06:19;;;;;;;13.73;7.23;;;5.10;99.90;;;;;;5085989;28;20201;-79
2020/12/13 12:08:45;;;;;;;11.57;8.03;;;5.10;99.90;;;;;;5085117;28;20189;-77
2020/12/13 12:11:20;;;;;;;9.97;6.80;;;5.20;99.90;;;;;;5084797;28;20198;-77
2020/12/13 12:13:49;;;;;;;8.80;7.03;;;5.20;99.90;;;;;;5084359;28;20242;-80
2020/12/13 12:16:15;;;;;;;10.03;6.57;;;5.20;99.90;;;;;;5087359;28;20188;-76
2020/12/13 12:18:40;;;;;;;9.53;6.60;;;5.20;99.90;;;;;;5086831;28;20199;-78
2020/12/13 12:21:13;;;;;;;10.27;5.93;;;5.30;99.90;;;;;;5086521;28;20204;-75
2020/12/13 12:23:41;;;;;;;10.17;6.80;;;5.30;99.90;;;;;;5085969;28;20197;-74
2020/12/13 12:26:07;;;;;;;8.67;6.00;;;5.30;99.90;;;;;;5085658;28;20193;-76
2020/12/13 12:28:33;;;;;;;8.73;6.20;;;5.40;99.90;;;;;;5087733;28;20199;-75
2020/12/13 12:30:58;;;;;;;9.13;6.80;;;5.40;99.90;;;;;;5084452;28;20205;-74
2020/12/13 12:33:24;;;;;;;11.10;6.83;;;5.40;99.90;;;;;;5083440;28;20216;-73
2020/12/13 12:35:49;;;;;;;9.43;5.67;;;5.40;99.90;;;;;;5083467;28;20185;-73
2020/12/13 12:38:15;;;;;;;9.97;6.87;;;5.40;99.90;;;;;;5084612;28;20352;-72
2020/12/13 12:40:41;;;;;;;12.20;7.30;;;5.50;99.90;;;;;;5084175;28;20201;-73
2020/12/13 12:43:06;;;;;;;12.40;8.33;;;5.50;99.90;;;;;;5084489;28;20267;-73
2020/12/13 12:45:32;;;;;;;10.80;6.87;;;5.50;99.90;;;;;;5084478;28;20220;-75
2020/12/13 12:47:58;;;;;;;12.10;7.07;;;5.60;99.90;;;;;;5085300;28;20185;-73
2020/12/13 12:50:23;;;;;;;13.43;7.03;;;5.60;99.90;;;;;;5084567;28;20205;-74
2020/12/13 12:52:49;;;;;;;14.57;8.83;;;5.60;99.90;;;;;;5085056;28;20239;-73
2020/12/13 12:55:14;;;;;;;10.47;8.10;;;5.70;99.90;;;;;;5084939;28;20896;-73
2020/12/13 12:57:40;;;;;;;10.40;7.80;;;5.60;99.90;;;;;;5085095;28;20208;-73
2020/12/13 13:02:50;;;;;;;13.07;7.97;;;5.70;99.90;;;;;;5085148;28;20184;-73